Lorain, OH (44052)

3:02 PM EDT on August 29, 2015 (GMT -0400)
Lorain - Lakefront | | Change Station
CLOSE
Current Station
Personal Weather Station
Location: Lorain, OH
Elevation: 580 ft
Nearby Weather Stations

Elev 580 ft 41.47 °N, 82.19 °W | Updated 10 seconds ago

Partly Cloudy
Partly Cloudy
79.3 °F
Feels Like 82 °F
N
4.9
Wind Variable Wind from NNE
Gusts 6.0 mph

Today
High -- | Low -- °F
--% Chance of Precip.
Yesterday
High -- | Low -- °F
Precip. -- in
6:51 AM 8:06 PM
Full, 100% visible
Pressure 30.09 in
Visibility 10.0 miles
Clouds Few 4400 ft
Scattered Clouds 9000 ft
Heat Index 82 °F
Dew Point 67 °F
Humidity 66%
Rainfall 0.00 in
Snow Depth Not available.
UV 7 out of 12
Pollen 9.40 out of 12
Air Quality Not available.
Flu Activity Not available.
METAR KLPR 291853Z AUTO VRB03KT 10SM FEW044 SCT090 27/17 A3011 RMK AO2 SLP190 T02670167 TSNO
Pressure 30.09 in
Visibility 10.0 miles
Clouds Few 4400 ft
Scattered Clouds 9000 ft
Heat Index 82 °F
Dew Point 67 °F
Humidity 66%
Rainfall 0.00 in
Snow Depth Not available.
UV 7 out of 12
Pollen 9.40 out of 12
Air Quality Not available.
Flu Activity Not available.
METAR KLPR 291853Z AUTO VRB03KT 10SM FEW044 SCT090 27/17 A3011 RMK AO2 SLP190 T02670167 TSNO

10-Day Weather Forecast

×

Almanac

Astronomy

Aug. 29, 2015 Rise Set
Actual Time
Civil Twilight
Nautical Twilight
Astronomical Twilight
Moon
Length of Visible Light
Length of Day
Tomorrow will be .
, % of the Moon is Illuminated

Today's Extremes

State Highs State Lows

Community

WunderPhotos

Upload Photos

1,850,777 photos uploaded!

WunderBlogs® & News

Nearby

Air Quality

  Air Quality AQ Index Pollutant
Not available.

Snow Depth

Station Depth Elevation

Earthquake Activity

City Distance Mag. Time & Date
Minimum magnitude displayed is 2.5.

Coastal Water Temperatures

Place Temperature

Stations

Nearby Weather Stations

Station Location Temp. Windchill Dew Point Humidity Wind Precip. Elev Updated Type